Time;durP1;ratioP1;P1;durP2;ratioP2;P2;SDS_P1;SDS_P2;PMS_P1;PMS_P2;Temp;Humidity;BMP_temperature;BMP_pressure;BME280_temperature;BME280_humidity;BME280_pressure;Samples;Min_cycle;Max_cycle;Signal;HPM_P1;HPM_P2
2024/01/10 00:01:10;;;;;;;29.97;17.83;;;-4.20;99.90;;;;;;5114775;27;20190;-80
2024/01/10 00:03:35;;;;;;;29.67;16.97;;;-4.30;99.90;;;;;;5115551;27;20023;-81
2024/01/10 00:06:01;;;;;;;29.60;17.57;;;-4.30;99.90;;;;;;5108430;28;20088;-80
2024/01/10 00:08:27;;;;;;;28.63;16.73;;;-4.20;99.90;;;;;;5133915;27;20065;-80
2024/01/10 00:10:54;;;;;;;30.90;17.00;;;-4.30;99.90;;;;;;5133050;27;20046;-80
2024/01/10 00:13:21;;;;;;;33.67;18.60;;;-4.30;99.90;;;;;;5086013;27;20039;-80
2024/01/10 00:15:46;;;;;;;31.97;17.67;;;-4.30;99.90;;;;;;5115973;27;20473;-80
2024/01/10 00:18:12;;;;;;;31.13;18.67;;;-4.40;99.90;;;;;;5133959;27;20067;-80
2024/01/10 00:20:38;;;;;;;32.50;18.37;;;-4.40;99.90;;;;;;5098461;27;20037;-80
2024/01/10 00:23:03;;;;;;;30.87;18.80;;;-4.40;99.90;;;;;;5133978;27;20035;-80
2024/01/10 00:25:29;;;;;;;28.57;17.53;;;-4.40;99.90;;;;;;5114617;27;20402;-81
2024/01/10 00:27:54;;;;;;;29.53;17.37;;;-4.40;99.90;;;;;;5113320;27;20414;-80
2024/01/10 00:30:21;;;;;;;28.40;16.97;;;-4.40;99.90;;;;;;5133110;27;20134;-81
2024/01/10 00:32:47;;;;;;;27.63;17.00;;;-4.50;99.90;;;;;;5114735;27;20042;-80
2024/01/10 00:35:12;;;;;;;30.57;17.00;;;-4.50;99.90;;;;;;5097760;27;20035;-80
2024/01/10 00:37:38;;;;;;;30.80;17.77;;;-4.50;99.90;;;;;;5110464;28;20130;-80
2024/01/10 00:40:04;;;;;;;28.40;17.50;;;-4.50;99.90;;;;;;5095829;28;20049;-80
2024/01/10 00:42:30;;;;;;;26.73;16.67;;;-4.50;99.90;;;;;;5110956;28;20039;-80
2024/01/10 00:44:55;;;;;;;29.10;16.70;;;-4.50;99.90;;;;;;5086946;28;20096;-81
2024/01/10 00:47:21;;;;;;;29.83;17.77;;;-4.50;99.90;;;;;;5112271;28;20047;-81
2024/01/10 00:49:46;;;;;;;29.10;16.97;;;-4.50;99.90;;;;;;5115624;28;20043;-80
2024/01/10 00:52:12;;;;;;;32.30;18.27;;;-4.50;99.90;;;;;;5131963;28;20050;-80
2024/01/10 00:54:38;;;;;;;29.47;17.73;;;-4.50;99.90;;;;;;5114654;28;20031;-81
2024/01/10 00:57:03;;;;;;;31.50;17.93;;;-4.50;99.90;;;;;;5115681;28;20114;-80
2024/01/10 00:59:29;;;;;;;27.43;16.63;;;-4.50;99.90;;;;;;5125261;28;20073;-81
2024/01/10 01:01:54;;;;;;;28.83;17.23;;;-4.50;99.90;;;;;;5115720;28;20031;-80
2024/01/10 01:04:20;;;;;;;30.03;16.30;;;-4.50;99.90;;;;;;5114995;28;20031;-80
2024/01/10 01:06:46;;;;;;;28.50;16.03;;;-4.60;99.90;;;;;;5115328;28;20119;-80
2024/01/10 01:09:15;;;;;;;27.43;16.17;;;-4.60;99.90;;;;;;5115086;27;20039;-80
2024/01/10 01:11:41;;;;;;;27.87;16.57;;;-4.60;99.90;;;;;;5133259;28;20529;-80
2024/01/10 01:14:07;;;;;;;28.47;16.03;;;-4.60;99.90;;;;;;5115334;28;20047;-80
2024/01/10 01:16:33;;;;;;;28.73;16.80;;;-3.90;99.90;;;;;;5115132;28;20497;-80
2024/01/10 01:18:58;;;;;;;28.27;16.97;;;-4.60;99.90;;;;;;5105618;28;20096;-80
2024/01/10 01:21:24;;;;;;;28.63;17.00;;;-4.60;99.90;;;;;;5114893;28;20081;-80
2024/01/10 01:23:50;;;;;;;27.97;16.50;;;-4.60;99.90;;;;;;5115352;27;20383;-80
2024/01/10 01:26:15;;;;;;;28.63;16.77;;;-4.60;99.90;;;;;;5133198;28;20035;-80
2024/01/10 01:28:41;;;;;;;29.47;16.47;;;-4.60;99.90;;;;;;5114844;28;20039;-80
2024/01/10 01:31:07;;;;;;;28.43;17.00;;;-4.60;99.90;;;;;;5133698;28;20486;-80
2024/01/10 01:33:32;;;;;;;29.73;16.50;;;-4.60;99.90;;;;;;5114513;28;20115;-80
2024/01/10 01:35:58;;;;;;;27.73;16.50;;;-4.60;99.90;;;;;;5114945;28;20031;-80
2024/01/10 01:38:24;;;;;;;27.23;15.70;;;-4.60;99.90;;;;;;5112357;28;20498;-80
2024/01/10 01:40:50;;;;;;;27.63;15.50;;;-4.60;99.90;;;;;;5118257;28;20073;-80
2024/01/10 01:43:25;;;;;;;26.73;15.37;;;-4.60;99.90;;;;;;5098414;28;20035;-80
2024/01/10 01:45:56;;;;;;;28.57;15.30;;;-4.60;99.90;;;;;;5097951;28;20031;-80
2024/01/10 01:48:22;;;;;;;26.17;14.90;;;-4.60;99.90;;;;;;5105899;28;20047;-80
2024/01/10 01:50:52;;;;;;;28.17;15.60;;;-4.60;99.90;;;;;;5130864;27;20073;-80
2024/01/10 01:53:18;;;;;;;25.70;15.63;;;-4.60;99.90;;;;;;5137571;27;20061;-80
2024/01/10 01:55:45;;;;;;;30.27;16.23;;;-4.60;99.90;;;;;;5119219;27;20058;-80
2024/01/10 01:58:12;;;;;;;29.53;17.23;;;-4.60;99.90;;;;;;5137487;27;20035;-80
2024/01/10 02:00:38;;;;;;;30.60;17.37;;;-4.60;99.90;;;;;;5119301;27;20035;-80
2024/01/10 02:03:09;;;;;;;27.70;15.97;;;-4.60;99.90;;;;;;5119713;27;20141;-80
2024/01/10 02:05:35;;;;;;;28.27;16.77;;;-4.50;99.90;;;;;;5113873;27;20133;-80
2024/01/10 02:08:01;;;;;;;30.13;17.07;;;-4.50;99.90;;;;;;5119955;27;20063;-80
2024/01/10 02:10:27;;;;;;;29.73;16.83;;;-4.50;99.90;;;;;;5137772;27;20043;-80
2024/01/10 02:12:52;;;;;;;27.67;15.87;;;-4.50;99.90;;;;;;5119291;27;20039;-80
2024/01/10 02:15:18;;;;;;;27.67;16.77;;;-4.50;99.90;;;;;;5119285;27;20035;-80
2024/01/10 02:17:44;;;;;;;27.07;15.17;;;-4.50;99.90;;;;;;5102057;27;20094;-79
2024/01/10 02:20:16;;;;;;;25.37;15.43;;;-4.50;99.90;;;;;;5137774;27;20039;-80
2024/01/10 02:22:42;;;;;;;26.23;15.70;;;-4.50;99.90;;;;;;5119632;27;20108;-80
2024/01/10 02:25:11;;;;;;;27.70;16.13;;;-4.50;99.90;;;;;;5137780;27;20039;-80
2024/01/10 02:27:37;;;;;;;26.30;15.20;;;-4.50;99.90;;;;;;5138866;27;20035;-80
2024/01/10 02:30:04;;;;;;;26.30;15.90;;;-4.50;99.90;;;;;;5138198;27;20095;-80
2024/01/10 02:32:30;;;;;;;26.10;15.13;;;-4.50;99.90;;;;;;5116061;27;20045;-80
2024/01/10 02:34:55;;;;;;;23.97;13.97;;;-4.50;99.90;;;;;;5118727;27;20039;-80
2024/01/10 02:37:21;;;;;;;25.47;14.57;;;-4.50;99.90;;;;;;5119372;27;20051;-80
2024/01/10 02:39:47;;;;;;;26.67;16.37;;;-4.50;99.90;;;;;;5138668;27;20035;-80
2024/01/10 02:42:12;;;;;;;25.57;15.13;;;-4.50;99.90;;;;;;5119654;27;20043;-80
2024/01/10 02:44:38;;;;;;;25.87;14.73;;;-4.50;99.90;;;;;;5119127;27;20046;-80
2024/01/10 02:47:04;;;;;;;26.03;14.93;;;-4.50;99.90;;;;;;5118747;27;20050;-80
2024/01/10 02:49:30;;;;;;;26.10;15.33;;;-4.50;99.90;;;;;;5119281;27;20366;-80
2024/01/10 02:51:56;;;;;;;29.80;15.17;;;-4.50;99.90;;;;;;5118975;27;20043;-80
2024/01/10 02:54:21;;;;;;;26.33;15.33;;;-4.50;99.90;;;;;;5100957;27;20035;-80
2024/01/10 02:56:47;;;;;;;27.83;15.53;;;-4.50;99.90;;;;;;5101291;27;20126;-79
2024/01/10 02:59:12;;;;;;;26.10;16.13;;;-4.50;99.90;;;;;;5137175;27;20030;-80
2024/01/10 03:01:38;;;;;;;27.27;16.33;;;-4.50;99.90;;;;;;5117808;27;20045;-80
2024/01/10 03:04:03;;;;;;;25.63;14.93;;;-4.50;99.90;;;;;;5137118;27;20031;-80
2024/01/10 03:06:29;;;;;;;29.73;16.20;;;-4.50;99.90;;;;;;5100652;27;20416;-80
2024/01/10 03:08:55;;;;;;;25.93;15.17;;;-4.50;99.90;;;;;;5117825;27;20035;-80
2024/01/10 03:11:21;;;;;;;30.77;16.43;;;-4.50;99.90;;;;;;5117139;27;20136;-80
2024/01/10 03:13:49;;;;;;;28.90;15.73;;;-4.50;99.90;;;;;;5117713;27;20046;-80
2024/01/10 03:16:15;;;;;;;25.83;16.03;;;-4.50;99.90;;;;;;5100366;27;20139;-80
2024/01/10 03:18:41;;;;;;;26.50;16.03;;;-4.50;99.90;;;;;;5136562;27;20071;-80
2024/01/10 03:21:07;;;;;;;27.90;16.40;;;-4.50;99.90;;;;;;5110136;28;20118;-80
2024/01/10 03:23:32;;;;;;;25.00;15.47;;;-4.50;99.90;;;;;;5105625;27;20031;-80
2024/01/10 03:25:58;;;;;;;27.50;15.77;;;-4.50;99.90;;;;;;5117161;27;20031;-80
2024/01/10 03:28:24;;;;;;;27.53;16.50;;;-4.50;99.90;;;;;;5136264;27;20086;-80
2024/01/10 03:30:49;;;;;;;26.97;15.67;;;-4.50;99.90;;;;;;5117301;27;20041;-80
2024/01/10 03:33:15;;;;;;;27.03;15.20;;;-4.50;99.90;;;;;;5116642;27;20049;-79
2024/01/10 03:35:41;;;;;;;26.53;15.80;;;-4.50;99.90;;;;;;5117100;27;20035;-80
2024/01/10 03:38:08;;;;;;;31.07;16.60;;;-4.50;99.90;;;;;;5116922;27;20080;-80
2024/01/10 03:40:33;;;;;;;26.40;15.93;;;-4.50;99.90;;;;;;5099373;27;20542;-79
2024/01/10 03:42:59;;;;;;;27.77;15.83;;;-4.60;99.90;;;;;;5135941;27;20075;-80
2024/01/10 03:45:24;;;;;;;26.47;14.57;;;-4.50;99.90;;;;;;5116861;27;20062;-79
2024/01/10 03:47:51;;;;;;;26.20;16.07;;;-4.50;99.90;;;;;;5135168;27;20039;-79
2024/01/10 03:50:20;;;;;;;27.37;15.20;;;-4.50;99.90;;;;;;5116094;27;20075;-79
2024/01/10 03:52:46;;;;;;;27.07;15.87;;;-4.50;99.90;;;;;;5116899;27;20035;-79
2024/01/10 03:55:13;;;;;;;28.40;16.17;;;-4.60;99.90;;;;;;5134807;27;20039;-79
2024/01/10 03:57:39;;;;;;;28.20;16.17;;;-4.60;99.90;;;;;;5116762;27;20069;-79
2024/01/10 04:00:06;;;;;;;28.10;16.47;;;-4.60;99.90;;;;;;5116198;27;20460;-79
2024/01/10 04:02:32;;;;;;;27.87;16.27;;;-4.60;99.90;;;;;;5116605;27;20107;-80
2024/01/10 04:04:58;;;;;;;24.67;14.63;;;-4.60;99.90;;;;;;5116576;27;20513;-79
2024/01/10 04:07:25;;;;;;;27.83;16.20;;;-4.60;99.90;;;;;;5099095;27;20035;-80
2024/01/10 04:09:51;;;;;;;26.07;14.43;;;-4.60;99.90;;;;;;5116685;27;20047;-80
2024/01/10 04:12:17;;;;;;;26.83;15.63;;;-4.70;99.90;;;;;;5136374;27;20406;-79
2024/01/10 04:14:42;;;;;;;23.37;15.07;;;-4.60;99.90;;;;;;5136591;27;20084;-80
2024/01/10 04:17:09;;;;;;;27.43;16.17;;;-4.60;99.90;;;;;;5117258;27;20038;-80
2024/01/10 04:19:34;;;;;;;25.53;14.90;;;-4.60;99.90;;;;;;5117023;27;20102;-80
2024/01/10 04:22:00;;;;;;;25.93;15.47;;;-4.60;99.90;;;;;;5117109;27;20058;-79
2024/01/10 04:24:26;;;;;;;27.50;15.57;;;-4.60;99.90;;;;;;5117464;27;20042;-80
2024/01/10 04:26:51;;;;;;;25.47;15.33;;;-4.70;99.90;;;;;;5135882;27;20071;-79
2024/01/10 04:29:17;;;;;;;25.50;15.10;;;-4.60;99.90;;;;;;5135917;27;20110;-79
2024/01/10 04:31:42;;;;;;;29.53;15.87;;;-4.60;99.90;;;;;;5117641;27;20039;-79
2024/01/10 04:34:08;;;;;;;29.50;16.80;;;-4.60;99.90;;;;;;5116401;27;20043;-79
2024/01/10 04:36:34;;;;;;;27.33;15.40;;;-4.60;99.90;;;;;;5116944;28;20031;-80
2024/01/10 04:38:59;;;;;;;26.57;15.40;;;-4.60;99.90;;;;;;5116662;27;20390;-79
2024/01/10 04:41:25;;;;;;;28.97;16.27;;;-4.60;99.90;;;;;;5117224;27;20498;-80
2024/01/10 04:43:51;;;;;;;27.00;15.47;;;-4.60;99.90;;;;;;5134549;27;20468;-79
2024/01/10 04:46:17;;;;;;;25.57;15.33;;;-4.60;99.90;;;;;;5117229;28;20035;-79
2024/01/10 04:48:43;;;;;;;25.73;14.93;;;-4.60;99.90;;;;;;5136916;27;20184;-79
2024/01/10 04:51:08;;;;;;;26.40;15.27;;;-4.60;99.90;;;;;;5135259;27;20039;-79
2024/01/10 04:53:34;;;;;;;25.33;14.60;;;-4.60;99.90;;;;;;5116375;27;20038;-80
2024/01/10 04:56:00;;;;;;;25.80;15.73;;;-4.60;99.90;;;;;;5117899;28;20046;-79
2024/01/10 04:58:25;;;;;;;27.13;16.50;;;-4.60;99.90;;;;;;5117845;28;20107;-79
2024/01/10 05:00:51;;;;;;;27.20;15.53;;;-4.60;99.90;;;;;;5098965;28;20039;-79
2024/01/10 05:03:17;;;;;;;26.10;16.00;;;-4.70;99.90;;;;;;5117058;28;20167;-79
2024/01/10 05:05:42;;;;;;;28.37;15.57;;;-4.70;99.90;;;;;;5131946;27;20453;-79
2024/01/10 05:08:08;;;;;;;26.73;15.60;;;-4.50;99.90;;;;;;5109347;28;20092;-79
2024/01/10 05:10:33;;;;;;;29.00;15.83;;;-4.70;99.90;;;;;;5116776;28;20031;-79
2024/01/10 05:12:59;;;;;;;29.07;16.00;;;-4.70;99.90;;;;;;5100587;28;20047;-78
2024/01/10 05:15:25;;;;;;;26.87;15.20;;;-4.70;99.90;;;;;;5117212;28;20421;-79
2024/01/10 05:17:50;;;;;;;27.77;16.23;;;-4.70;99.90;;;;;;5136006;28;20043;-79
2024/01/10 05:20:16;;;;;;;27.33;15.50;;;-4.80;99.90;;;;;;5116678;28;20035;-79
2024/01/10 05:22:42;;;;;;;25.73;15.77;;;-4.80;99.90;;;;;;5116884;28;20096;-78
2024/01/10 05:25:08;;;;;;;26.80;14.70;;;-4.80;99.90;;;;;;5138711;27;20425;-79
2024/01/10 05:27:34;;;;;;;27.37;15.00;;;-4.80;99.90;;;;;;5121111;27;20031;-79
2024/01/10 05:29:59;;;;;;;27.23;16.37;;;-4.80;99.90;;;;;;5112229;27;20035;-79
2024/01/10 05:32:26;;;;;;;25.97;15.63;;;-4.80;99.90;;;;;;5122203;27;20054;-79
2024/01/10 05:34:53;;;;;;;28.90;16.10;;;-4.80;99.90;;;;;;5103175;27;20039;-79
2024/01/10 05:37:19;;;;;;;27.07;15.43;;;-4.90;99.90;;;;;;5103156;27;20043;-79
2024/01/10 05:39:44;;;;;;;29.90;16.93;;;-4.90;99.90;;;;;;5102729;27;20035;-79
2024/01/10 05:42:11;;;;;;;27.47;15.83;;;-4.90;99.90;;;;;;5138489;27;20111;-79
2024/01/10 05:44:36;;;;;;;28.70;15.90;;;-4.90;99.90;;;;;;5102745;27;20131;-79
2024/01/10 05:47:02;;;;;;;27.07;15.97;;;-4.90;99.90;;;;;;5121046;27;20081;-79
2024/01/10 05:49:28;;;;;;;28.17;15.57;;;-5.00;99.90;;;;;;5122069;27;20042;-79
2024/01/10 05:51:54;;;;;;;25.93;15.20;;;-4.90;99.90;;;;;;5137392;27;20050;-78
2024/01/10 05:54:19;;;;;;;30.73;16.30;;;-4.90;99.90;;;;;;5120526;27;20038;-79
2024/01/10 05:56:45;;;;;;;28.60;15.70;;;-4.90;99.90;;;;;;5139190;27;20043;-79
2024/01/10 05:59:11;;;;;;;26.73;16.40;;;-4.90;99.90;;;;;;5120052;27;20035;-79
2024/01/10 06:01:40;;;;;;;29.93;17.17;;;-4.90;99.90;;;;;;5138930;27;20070;-78
2024/01/10 06:04:06;;;;;;;30.07;16.70;;;-4.90;99.90;;;;;;5139190;27;20038;-79
2024/01/10 06:06:32;;;;;;;28.30;16.77;;;-4.90;99.90;;;;;;5120677;27;20056;-79
2024/01/10 06:08:58;;;;;;;26.50;15.90;;;-4.90;99.90;;;;;;5139217;27;20059;-79
2024/01/10 06:11:23;;;;;;;28.57;16.43;;;-4.90;99.90;;;;;;5138397;27;20080;-79
2024/01/10 06:13:49;;;;;;;26.37;16.10;;;-4.90;99.90;;;;;;5138842;27;20050;-79
2024/01/10 06:16:15;;;;;;;29.23;16.00;;;-4.90;99.90;;;;;;5139083;27;20039;-78
2024/01/10 06:18:41;;;;;;;29.07;15.40;;;-4.90;99.90;;;;;;5131584;27;20108;-79
2024/01/10 06:21:06;;;;;;;28.43;15.93;;;-4.90;99.90;;;;;;5119606;27;20451;-78
2024/01/10 06:23:32;;;;;;;28.83;16.20;;;-4.90;99.90;;;;;;5120109;27;20449;-79
2024/01/10 06:25:58;;;;;;;26.30;15.37;;;-4.90;99.90;;;;;;5138794;27;20085;-78
2024/01/10 06:28:23;;;;;;;56.87;16.73;;;-4.90;99.90;;;;;;5119889;27;20039;-79
2024/01/10 06:30:49;;;;;;;27.53;15.70;;;-4.90;99.90;;;;;;5119910;27;20038;-78
2024/01/10 06:33:15;;;;;;;31.63;16.67;;;-4.90;99.90;;;;;;5138484;27;20043;-78
2024/01/10 06:35:44;;;;;;;26.90;16.03;;;-5.00;99.90;;;;;;5119931;27;20490;-78
2024/01/10 06:38:10;;;;;;;28.97;17.37;;;-5.00;99.90;;;;;;5102991;27;20035;-79
2024/01/10 06:40:36;;;;;;;27.73;16.33;;;-5.00;99.90;;;;;;5102414;27;20046;-77
2024/01/10 06:43:03;;;;;;;29.73;17.47;;;-5.00;99.90;;;;;;5138022;27;20035;-79
2024/01/10 06:45:29;;;;;;;30.10;16.70;;;-4.90;99.90;;;;;;5118814;27;20517;-78
2024/01/10 06:47:55;;;;;;;30.30;17.57;;;-4.90;99.90;;;;;;5118668;27;20078;-79
2024/01/10 06:50:21;;;;;;;32.00;17.97;;;-4.90;99.90;;;;;;5119489;27;20042;-78
2024/01/10 06:52:48;;;;;;;29.27;17.20;;;-4.90;99.90;;;;;;5136509;27;20043;-79
2024/01/10 06:55:13;;;;;;;29.30;17.43;;;-5.00;99.90;;;;;;5135231;27;20502;-78
2024/01/10 06:57:39;;;;;;;31.00;17.43;;;-4.90;99.90;;;;;;5114963;27;20040;-79
2024/01/10 07:00:10;;;;;;;33.40;18.43;;;-4.90;99.90;;;;;;5135295;27;20045;-79
2024/01/10 07:02:39;;;;;;;30.93;17.73;;;-4.90;99.90;;;;;;5133910;27;20326;-78
2024/01/10 07:05:11;;;;;;;32.90;18.20;;;-5.00;99.90;;;;;;5114843;27;20486;-78
2024/01/10 07:07:37;;;;;;;33.93;18.33;;;-5.00;99.90;;;;;;5133336;27;20133;-78
2024/01/10 07:10:06;;;;;;;31.37;17.73;;;-5.00;99.90;;;;;;5132450;27;20067;-78
2024/01/10 07:12:35;;;;;;;30.20;17.70;;;-5.00;99.90;;;;;;5132191;27;20505;-78
2024/01/10 07:15:03;;;;;;;31.77;18.30;;;-5.00;99.90;;;;;;5113561;27;20039;-78
2024/01/10 07:17:28;;;;;;;29.60;17.33;;;-5.00;99.90;;;;;;5113033;27;20092;-78
2024/01/10 07:19:56;;;;;;;32.20;18.20;;;-5.00;99.90;;;;;;5133456;27;20347;-78
2024/01/10 07:22:25;;;;;;;30.20;17.27;;;-5.00;99.90;;;;;;5115824;27;20498;-78
2024/01/10 07:24:50;;;;;;;33.40;18.50;;;-5.00;99.90;;;;;;5101672;28;20041;-78
2024/01/10 07:27:16;;;;;;;28.70;16.93;;;-5.00;99.90;;;;;;5114720;27;20421;-78
2024/01/10 07:29:42;;;;;;;29.50;16.53;;;-4.90;99.90;;;;;;5114617;27;20038;-78
2024/01/10 07:32:11;;;;;;;31.60;18.27;;;-5.00;99.90;;;;;;5114909;27;20474;-78
2024/01/10 07:34:37;;;;;;;31.50;17.33;;;-4.90;99.90;;;;;;5113805;27;20053;-78
2024/01/10 07:37:03;;;;;;;28.93;16.20;;;-4.90;99.90;;;;;;5115698;27;20516;-77
2024/01/10 07:39:29;;;;;;;30.50;18.03;;;-4.90;99.90;;;;;;5133368;27;20110;-78
2024/01/10 07:41:55;;;;;;;32.43;17.10;;;-5.00;99.90;;;;;;5097646;27;20035;-78
2024/01/10 07:44:21;;;;;;;32.07;16.77;;;-4.90;99.90;;;;;;5114634;27;20031;-78
2024/01/10 07:46:47;;;;;;;32.60;16.77;;;-5.00;99.90;;;;;;5114236;27;20075;-78
2024/01/10 07:49:12;;;;;;;32.77;17.03;;;-5.00;99.90;;;;;;5113963;27;20067;-77
2024/01/10 07:51:38;;;;;;;30.63;16.20;;;-4.90;99.90;;;;;;5114382;27;20542;-77
2024/01/10 07:54:04;;;;;;;33.30;16.90;;;-5.00;99.90;;;;;;5113702;27;20038;-78
2024/01/10 07:56:30;;;;;;;32.23;16.73;;;-5.00;99.90;;;;;;5113464;27;20164;-78
2024/01/10 07:58:56;;;;;;;29.37;15.93;;;-5.00;99.90;;;;;;5113899;27;20047;-78
2024/01/10 08:01:21;;;;;;;31.77;16.03;;;-5.00;99.90;;;;;;5114152;27;20118;-78
2024/01/10 08:03:47;;;;;;;30.53;15.80;;;-5.00;99.90;;;;;;5113974;27;20160;-78
2024/01/10 08:06:13;;;;;;;27.10;15.70;;;-5.00;99.90;;;;;;5096767;27;20042;-77
2024/01/10 08:08:39;;;;;;;30.13;15.30;;;-5.00;99.90;;;;;;5113964;27;20050;-78
2024/01/10 08:11:05;;;;;;;29.30;15.57;;;-5.00;99.90;;;;;;5107334;28;20047;-78
2024/01/10 08:13:31;;;;;;;31.07;14.63;;;-5.00;99.90;;;;;;5110018;27;20076;-78
2024/01/10 08:15:56;;;;;;;30.87;15.33;;;-5.00;99.90;;;;;;5114342;27;20494;-77
2024/01/10 08:18:23;;;;;;;30.63;14.37;;;-5.00;99.90;;;;;;5134236;27;20031;-77
2024/01/10 08:20:49;;;;;;;32.00;15.10;;;-5.00;99.90;;;;;;5081585;27;20059;-78
2024/01/10 08:23:14;;;;;;;28.97;14.57;;;-4.90;99.90;;;;;;5114649;27;20077;-77
2024/01/10 08:25:40;;;;;;;28.27;13.40;;;-4.90;99.90;;;;;;5101848;27;20035;-78
2024/01/10 08:28:06;;;;;;;32.60;13.97;;;-4.90;99.90;;;;;;5131762;27;20113;-78
2024/01/10 08:30:32;;;;;;;27.33;13.67;;;-4.80;99.90;;;;;;5113566;27;20039;-78
2024/01/10 08:32:59;;;;;;;26.97;12.40;;;-4.80;99.90;;;;;;5112564;28;20039;-77
2024/01/10 08:35:25;;;;;;;28.80;12.30;;;-4.80;99.90;;;;;;5111705;27;20047;-78
2024/01/10 08:37:50;;;;;;;29.97;12.70;;;-4.70;99.90;;;;;;5113667;28;20039;-78
2024/01/10 08:40:17;;;;;;;30.47;12.33;;;-4.70;99.90;;;;;;5113598;27;20136;-77
2024/01/10 08:42:42;;;;;;;28.07;12.93;;;-4.70;99.90;;;;;;5113507;27;20087;-78
2024/01/10 08:45:11;;;;;;;27.20;12.10;;;-4.70;99.90;;;;;;5113810;27;20027;-77
2024/01/10 08:47:37;;;;;;;27.23;12.63;;;-4.60;99.90;;;;;;5096924;27;20047;-78
2024/01/10 08:50:08;;;;;;;26.37;12.03;;;-4.60;99.90;;;;;;5132740;27;20039;-77
2024/01/10 08:52:37;;;;;;;29.00;12.77;;;-4.60;99.90;;;;;;5113629;28;20035;-77
2024/01/10 08:55:05;;;;;;;26.27;12.40;;;-4.50;99.90;;;;;;5131327;27;20039;-77
2024/01/10 08:57:30;;;;;;;29.10;12.27;;;-4.50;99.90;;;;;;5112084;28;20039;-77
2024/01/10 08:59:56;;;;;;;27.60;11.67;;;-4.50;99.90;;;;;;5115718;27;20402;-78
2024/01/10 09:02:23;;;;;;;25.97;11.77;;;-4.40;99.90;;;;;;5116265;27;20100;-77
2024/01/10 09:04:49;;;;;;;26.87;12.20;;;-4.40;99.90;;;;;;5135088;27;20106;-77
2024/01/10 09:07:14;;;;;;;25.23;11.57;;;-4.40;99.90;;;;;;5135498;27;20102;-77
2024/01/10 09:09:40;;;;;;;27.33;12.23;;;-4.30;99.90;;;;;;5099200;27;20035;-77
2024/01/10 09:12:06;;;;;;;27.27;11.57;;;-4.30;99.90;;;;;;5117131;27;20107;-78
2024/01/10 09:14:32;;;;;;;23.50;11.20;;;-4.30;99.90;;;;;;5135874;27;20038;-78
2024/01/10 09:17:02;;;;;;;29.73;11.13;;;-4.20;99.90;;;;;;5117220;27;20081;-77
2024/01/10 09:19:28;;;;;;;27.97;11.60;;;-4.20;99.90;;;;;;5135314;27;20031;-77
2024/01/10 09:21:54;;;;;;;23.47;11.03;;;-4.10;99.90;;;;;;5117132;27;20031;-78
2024/01/10 09:24:19;;;;;;;23.67;11.33;;;-4.10;99.90;;;;;;5116493;27;20419;-77
2024/01/10 09:26:45;;;;;;;22.57;11.07;;;-4.30;99.90;;;;;;5099572;27;20047;-77
2024/01/10 09:29:11;;;;;;;25.63;11.20;;;-4.10;99.90;;;;;;5135279;27;20488;-77
2024/01/10 09:31:37;;;;;;;23.37;10.80;;;-4.00;99.90;;;;;;5116258;27;20066;-77
2024/01/10 09:34:02;;;;;;;23.53;10.80;;;-4.00;99.90;;;;;;5116919;27;20073;-78
2024/01/10 09:36:28;;;;;;;22.67;10.30;;;-4.00;99.90;;;;;;5116360;27;20039;-78
2024/01/10 09:38:54;;;;;;;22.57;10.43;;;-3.90;99.90;;;;;;5116262;27;20039;-78
2024/01/10 09:41:20;;;;;;;23.80;11.03;;;-3.90;99.90;;;;;;5134725;27;20031;-78
2024/01/10 09:43:45;;;;;;;21.60;9.67;;;-3.90;99.90;;;;;;5134869;27;20065;-78
2024/01/10 09:46:12;;;;;;;22.33;9.97;;;-3.80;99.90;;;;;;5126922;27;20036;-78
2024/01/10 09:48:38;;;;;;;24.03;11.00;;;-3.80;99.90;;;;;;5106512;27;20039;-77
2024/01/10 09:51:04;;;;;;;25.70;10.73;;;-3.80;99.90;;;;;;5116443;27;20051;-77
2024/01/10 09:53:35;;;;;;;27.57;11.60;;;-3.50;99.90;;;;;;5134405;27;20043;-77
2024/01/10 09:56:04;;;;;;;23.00;10.40;;;-3.70;99.90;;;;;;5116386;27;20035;-77
2024/01/10 09:58:31;;;;;;;23.93;10.50;;;-3.60;99.90;;;;;;5134127;27;20126;-78
2024/01/10 10:00:57;;;;;;;21.50;10.40;;;-3.60;99.90;;;;;;5134530;27;20031;-77
2024/01/10 10:03:23;;;;;;;19.33;9.10;;;-3.50;99.90;;;;;;5115599;27;20086;-78
2024/01/10 10:05:49;;;;;;;21.60;9.90;;;-3.40;99.90;;;;;;5134231;27;20035;-77
2024/01/10 10:08:15;;;;;;;24.40;10.73;;;-3.40;99.90;;;;;;5134273;27;20168;-77
2024/01/10 10:10:44;;;;;;;22.40;10.17;;;-3.40;99.90;;;;;;5115254;27;20494;-77
2024/01/10 10:13:23;;;;;;;20.87;10.00;;;-3.30;99.90;;;;;;5115899;27;20254;-77
2024/01/10 10:15:58;;;;;;;21.57;9.60;;;-3.20;99.90;;;;;;5116483;27;20042;-78
2024/01/10 10:18:24;;;;;;;21.37;9.77;;;-3.10;99.90;;;;;;5133886;27;20039;-77
2024/01/10 10:21:07;;;;;;;23.07;10.83;;;-3.10;99.90;;;;;;5115555;27;20402;-77
2024/01/10 10:23:33;;;;;;;21.23;8.77;;;-3.10;99.90;;;;;;5115462;27;20035;-77
2024/01/10 10:26:09;;;;;;;21.90;8.97;;;-3.00;99.90;;;;;;5115615;27;20084;-77
2024/01/10 10:28:34;;;;;;;20.03;9.47;;;-3.00;99.90;;;;;;5115514;27;20141;-76
2024/01/10 10:31:00;;;;;;;23.17;9.97;;;-3.00;99.90;;;;;;5133850;27;20038;-77
2024/01/10 10:33:26;;;;;;;24.13;10.73;;;-2.90;99.90;;;;;;5133712;27;20107;-77
2024/01/10 10:35:52;;;;;;;18.93;9.30;;;-2.90;99.90;;;;;;5133962;27;20035;-77
2024/01/10 10:38:17;;;;;;;18.90;9.03;;;-2.80;99.90;;;;;;5133554;27;20042;-77
2024/01/10 10:40:43;;;;;;;22.13;9.50;;;-2.70;99.90;;;;;;5133542;27;20060;-76
2024/01/10 10:43:15;;;;;;;17.40;9.20;;;-2.70;99.90;;;;;;5115250;27;20505;-77
2024/01/10 10:45:47;;;;;;;19.10;9.37;;;-2.70;99.90;;;;;;5095647;28;20414;-77
2024/01/10 10:48:16;;;;;;;19.43;8.53;;;-2.60;99.90;;;;;;5129590;27;20458;-77
2024/01/10 10:50:58;;;;;;;20.03;8.67;;;-2.60;99.90;;;;;;5129084;27;20035;-77
2024/01/10 10:53:25;;;;;;;18.70;9.10;;;-2.60;99.90;;;;;;5114625;27;20043;-78
2024/01/10 10:55:53;;;;;;;19.27;9.07;;;-2.50;99.90;;;;;;5114948;27;20605;-78
2024/01/10 10:58:18;;;;;;;19.90;9.23;;;-2.40;99.90;;;;;;5114951;27;20039;-78
2024/01/10 11:00:46;;;;;;;19.40;9.00;;;-2.40;99.90;;;;;;5134756;27;20061;-79
2024/01/10 11:03:12;;;;;;;18.87;8.77;;;-2.30;99.90;;;;;;5134048;27;20031;-77
2024/01/10 11:05:41;;;;;;;18.53;8.70;;;-2.30;99.90;;;;;;5115149;27;20079;-77
2024/01/10 11:08:10;;;;;;;20.23;9.40;;;-2.20;99.90;;;;;;5115464;27;20074;-77
2024/01/10 11:10:39;;;;;;;18.40;9.27;;;-2.20;99.90;;;;;;5078843;27;20130;-77
2024/01/10 11:13:27;;;;;;;18.17;8.53;;;-2.10;99.90;;;;;;5132318;27;20422;-77
2024/01/10 11:16:22;;;;;;;20.73;8.80;;;-2.00;99.90;;;;;;5132856;27;20043;-77
2024/01/10 11:19:10;;;;;;;19.70;8.73;;;-1.90;99.90;;;;;;5114258;27;20043;-77
2024/01/10 11:22:06;;;;;;;18.90;8.73;;;-1.80;99.90;;;;;;5078242;28;20542;-77
2024/01/10 11:24:32;;;;;;;25.20;10.70;;;-1.80;99.90;;;;;;5102480;28;20429;-77
2024/01/10 11:27:11;;;;;;;20.03;9.93;;;-1.70;99.90;;;;;;5107045;27;20043;-76
2024/01/10 11:29:42;;;;;;;18.83;8.87;;;-1.60;99.90;;;;;;5087159;28;20051;-77
2024/01/10 11:32:16;;;;;;;18.90;8.80;;;-1.60;99.90;;;;;;5084303;27;20122;-77
2024/01/10 11:34:53;;;;;;;16.47;7.97;;;-1.50;99.90;;;;;;5113714;27;20053;-78
2024/01/10 11:37:18;;;;;;;19.43;8.97;;;-1.50;99.90;;;;;;5113915;27;20030;-77
2024/01/10 11:39:44;;;;;;;19.43;9.13;;;-1.50;99.90;;;;;;5132386;27;20126;-77
2024/01/10 11:42:10;;;;;;;17.50;7.77;;;-1.40;99.90;;;;;;5132648;27;20084;-77
2024/01/10 11:44:56;;;;;;;17.47;8.23;;;-1.40;99.90;;;;;;5132174;27;20027;-77
2024/01/10 11:47:22;;;;;;;19.07;8.77;;;-1.40;99.90;;;;;;5096151;27;20134;-76
2024/01/10 11:49:58;;;;;;;16.40;8.57;;;-1.30;99.90;;;;;;5113792;27;20126;-76
2024/01/10 11:52:32;;;;;;;15.43;8.50;;;-1.30;99.90;;;;;;5113764;27;20053;-76
2024/01/10 11:54:58;;;;;;;;;;;-1.30;99.90;;;;;;5099894;28;20115;-76
2024/01/10 11:57:28;;;;;;;15.90;7.33;;;-1.20;99.90;;;;;;5102640;27;20009;-76
2024/01/10 11:59:55;;;;;;;18.67;8.13;;;-1.20;99.90;;;;;;5132010;27;20035;-76
2024/01/10 12:02:22;;;;;;;18.53;8.70;;;-1.10;99.90;;;;;;5113468;27;20031;-76
2024/01/10 12:04:48;;;;;;;16.63;8.33;;;-1.10;99.90;;;;;;5113042;27;20031;-76
2024/01/10 12:07:15;;;;;;;18.00;8.43;;;-1.00;99.90;;;;;;5113730;27;20115;-76
2024/01/10 12:09:41;;;;;;;17.87;8.87;;;-1.00;99.90;;;;;;5113022;27;20074;-77
2024/01/10 12:12:07;;;;;;;17.20;8.30;;;-0.90;99.90;;;;;;5113718;27;20480;-77
2024/01/10 12:14:34;;;;;;;19.73;9.00;;;-0.90;99.90;;;;;;5131284;27;20078;-77
2024/01/10 12:17:00;;;;;;;19.27;9.03;;;-0.80;99.90;;;;;;5131837;27;20043;-78
2024/01/10 12:19:26;;;;;;;19.03;9.37;;;-0.80;99.90;;;;;;5106116;28;20459;-78
2024/01/10 12:21:52;;;;;;;17.40;9.07;;;-0.80;99.90;;;;;;5096998;27;20066;-77
2024/01/10 12:24:18;;;;;;;17.53;8.90;;;-0.80;99.90;;;;;;5113098;27;20452;-78
2024/01/10 12:26:48;;;;;;;18.37;8.83;;;-0.80;99.90;;;;;;5131964;27;20035;-77